Time;durP1;ratioP1;P1;durP2;ratioP2;P2;SDS_P1;SDS_P2;PMS_P1;PMS_P2;Temp;Humidity;BMP_temperature;BMP_pressure;BME280_temperature;BME280_humidity;BME280_pressure;Samples;Min_cycle;Max_cycle;Signal;HPM_P1;HPM_P2
2022/10/11 00:00:31;;;;;;;3.83;2.20;;;18.70;64.50;19.70;101562.00;;;;4970051;28;20177;-48
2022/10/11 00:02:57;;;;;;;3.60;2.30;;;18.70;63.60;19.70;101570.00;;;;4969649;28;20280;-48
2022/10/11 00:05:23;;;;;;;4.53;2.37;;;18.60;63.60;19.70;101572.00;;;;4969727;28;20177;-46
2022/10/11 00:07:48;;;;;;;6.23;2.60;;;18.60;63.60;19.70;101565.00;;;;4969885;28;20252;-47
2022/10/11 00:10:14;;;;;;;3.03;2.30;;;18.70;63.70;19.70;101575.00;;;;4969970;28;20173;-47
2022/10/11 00:12:40;;;;;;;3.63;2.40;;;18.60;63.50;19.70;101569.00;;;;4969840;28;20168;-48
2022/10/11 00:15:08;;;;;;;4.47;2.20;;;18.60;63.40;19.70;101582.00;;;;4969821;28;20716;-49
2022/10/11 00:17:34;;;;;;;2.97;2.20;;;18.60;63.40;19.60;101578.00;;;;4969966;28;20224;-48
2022/10/11 00:19:59;;;;;;;4.53;2.50;;;18.60;63.40;19.60;101587.00;;;;4969588;28;20228;-48
2022/10/11 00:22:25;;;;;;;2.73;2.20;;;18.50;63.40;19.60;101575.00;;;;4969609;28;20177;-48
2022/10/11 00:24:51;;;;;;;3.67;2.40;;;18.50;63.30;19.60;101587.00;;;;4969443;28;20287;-47
2022/10/11 00:27:18;;;;;;;3.10;2.17;;;18.50;63.30;19.60;101574.00;;;;4969450;28;20200;-49
2022/10/11 00:29:43;;;;;;;3.40;2.47;;;18.50;63.20;19.60;101591.00;;;;4968333;28;20200;-47
2022/10/11 00:32:09;;;;;;;2.50;2.30;;;18.50;63.10;19.50;101584.00;;;;4971755;28;20237;-47
2022/10/11 00:34:35;;;;;;;3.03;2.20;;;18.50;63.10;19.50;101591.00;;;;4972881;28;20555;-47
2022/10/11 00:37:01;;;;;;;3.07;2.17;;;18.50;63.10;19.50;101591.00;;;;4971541;28;20691;-48
2022/10/11 00:39:27;;;;;;;3.27;2.33;;;18.50;63.10;19.50;101593.00;;;;4973423;28;20310;-48
2022/10/11 00:41:52;;;;;;;2.40;2.10;;;18.40;63.10;19.50;101594.00;;;;4973421;28;20177;-47
2022/10/11 00:44:21;;;;;;;3.00;2.50;;;18.40;63.10;19.50;101582.00;;;;4971802;28;20331;-48
2022/10/11 00:47:02;;;;;;;3.13;2.20;;;18.40;63.10;19.40;101601.00;;;;4972607;28;20681;-48
2022/10/11 00:49:40;;;;;;;3.07;2.20;;;18.40;63.10;19.40;101593.00;;;;4971720;28;20195;-48
2022/10/11 00:52:30;;;;;;;4.10;2.37;;;18.40;63.20;19.40;101598.00;;;;4971977;28;20759;-46
2022/10/11 00:55:14;;;;;;;2.70;2.30;;;18.40;63.20;19.40;101598.00;;;;4971391;28;20379;-48
2022/10/11 00:57:42;;;;;;;3.13;2.07;;;18.30;63.10;19.40;101598.00;;;;4972205;28;20236;-48
2022/10/11 01:00:10;;;;;;;4.07;2.50;;;18.30;63.10;19.30;101600.00;;;;4955581;28;20173;-47
2022/10/11 01:02:36;;;;;;;3.20;2.40;;;18.30;63.10;19.30;101597.00;;;;4971492;28;20296;-48
2022/10/11 01:05:03;;;;;;;3.10;2.27;;;18.30;63.00;19.30;101601.00;;;;4973021;28;20591;-48
2022/10/11 01:07:30;;;;;;;2.37;2.17;;;18.30;63.00;19.30;101598.00;;;;4973486;28;20199;-48
2022/10/11 01:09:56;;;;;;;3.43;2.43;;;18.20;62.90;19.30;101602.00;;;;4973041;28;20169;-48
2022/10/11 01:12:24;;;;;;;2.10;1.90;;;18.20;62.90;19.30;101594.00;;;;4971777;28;20232;-47
2022/10/11 01:15:11;;;;;;;2.47;2.20;;;18.20;62.90;19.30;101596.00;;;;4971294;28;20207;-48
2022/10/11 01:18:05;;;;;;;3.20;2.20;;;18.20;62.90;19.20;101598.00;;;;4971526;28;20280;-47
2022/10/11 01:20:52;;;;;;;2.93;2.23;;;18.20;62.90;19.20;101593.00;;;;4971548;28;20235;-47
2022/10/11 01:23:57;;;;;;;2.93;2.13;;;18.20;62.90;19.20;101601.00;;;;4972165;28;20188;-48
2022/10/11 01:26:47;;;;;;;4.03;2.30;;;18.20;62.90;19.20;101603.00;;;;4971292;28;20243;-48
2022/10/11 01:29:43;;;;;;;2.73;2.20;;;18.10;62.80;19.20;101601.00;;;;4974896;28;20626;-48
2022/10/11 01:32:18;;;;;;;2.67;2.10;;;18.10;62.70;19.10;101594.00;;;;4971189;28;20302;-48
2022/10/11 01:34:57;;;;;;;2.60;2.13;;;18.10;62.80;19.10;101605.00;;;;4970457;28;20208;-48
2022/10/11 01:37:26;;;;;;;3.00;2.37;;;18.10;62.80;19.10;101592.00;;;;4956272;28;20774;-48
2022/10/11 01:40:37;;;;;;;3.70;2.33;;;18.00;63.50;19.10;101607.00;;;;4970542;28;20271;-48
2022/10/11 01:43:02;;;;;;;2.53;2.20;;;18.00;62.60;19.00;101614.00;;;;4952690;28;20737;-47
2022/10/11 01:45:28;;;;;;;3.07;2.03;;;18.10;62.70;19.00;101607.00;;;;4970409;28;20296;-48
2022/10/11 01:48:09;;;;;;;3.20;2.07;;;18.10;62.70;19.00;101626.00;;;;4970510;28;20199;-49
2022/10/11 01:50:39;;;;;;;2.77;2.00;;;18.00;62.70;19.00;101620.00;;;;4970417;28;20179;-47
2022/10/11 01:53:35;;;;;;;2.67;2.20;;;18.00;62.60;19.00;101595.00;;;;4971606;28;20296;-47
2022/10/11 01:56:09;;;;;;;5.40;2.40;;;18.00;62.70;19.00;101625.00;;;;4970666;28;20248;-47
2022/10/11 01:58:44;;;;;;;6.20;2.47;;;18.00;63.20;19.00;101625.00;;;;4971713;28;20165;-48
2022/10/11 02:01:29;;;;;;;4.20;2.10;;;18.00;62.90;19.00;101615.00;;;;4971577;28;20176;-48
2022/10/11 02:04:10;;;;;;;5.47;2.40;;;18.00;63.00;19.00;101615.00;;;;4955678;28;20180;-47
2022/10/11 02:07:05;;;;;;;6.27;2.30;;;18.00;63.00;19.00;101624.00;;;;4954836;28;20200;-47
2022/10/11 02:09:44;;;;;;;4.47;2.40;;;18.00;63.00;19.00;101617.00;;;;4951632;28;20796;-47
2022/10/11 02:12:12;;;;;;;5.63;2.37;;;17.90;62.90;18.90;101619.00;;;;4955236;28;20186;-48
2022/10/11 02:14:41;;;;;;;2.73;2.10;;;17.90;62.90;18.90;101619.00;;;;4971012;28;20201;-49
2022/10/11 02:17:16;;;;;;;3.57;2.23;;;17.90;62.90;18.90;101618.00;;;;4970063;28;20201;-47
2022/10/11 02:19:45;;;;;;;3.10;2.60;;;17.80;62.70;18.80;101625.00;;;;4954750;28;20179;-47
2022/10/11 02:22:23;;;;;;;3.70;2.40;;;17.80;62.50;18.80;101632.00;;;;4970128;28;20187;-48
2022/10/11 02:24:49;;;;;;;3.33;2.40;;;17.80;62.50;18.80;101629.00;;;;4970593;28;20171;-48
2022/10/11 02:27:17;;;;;;;3.60;2.30;;;17.80;62.00;18.80;101622.00;;;;4954033;28;20450;-47
2022/10/11 02:29:43;;;;;;;3.13;2.30;;;17.80;61.70;18.80;101616.00;;;;4969748;28;20172;-48
2022/10/11 02:32:08;;;;;;;3.77;2.23;;;17.80;61.60;18.80;101633.00;;;;4969942;28;20181;-47
2022/10/11 02:34:53;;;;;;;2.90;2.27;;;17.80;61.50;18.80;101622.00;;;;4969202;28;20626;-48
2022/10/11 02:37:39;;;;;;;4.57;2.27;;;17.70;61.10;18.80;101633.00;;;;4955465;28;20263;-47
2022/10/11 02:40:34;;;;;;;4.83;2.30;;;17.80;61.10;18.70;101629.00;;;;4969431;28;20189;-47
2022/10/11 02:43:03;;;;;;;3.60;2.30;;;17.70;60.90;18.70;101615.00;;;;4969910;28;20591;-47
2022/10/11 02:45:39;;;;;;;3.07;2.20;;;17.70;60.60;18.70;101639.00;;;;4969461;28;20187;-47
2022/10/11 02:48:05;;;;;;;4.17;2.40;;;17.70;60.40;18.70;101632.00;;;;4969531;28;20195;-48
2022/10/11 02:50:31;;;;;;;3.90;2.30;;;17.70;60.20;18.70;101639.00;;;;4969306;28;20667;-46
2022/10/11 02:52:56;;;;;;;3.50;2.30;;;17.70;60.00;18.70;101647.00;;;;4969332;28;20262;-48
2022/10/11 02:55:22;;;;;;;2.90;2.10;;;17.60;59.90;18.60;101639.00;;;;4970190;28;20658;-48
2022/10/11 02:57:48;;;;;;;2.70;2.10;;;17.60;59.70;18.60;101639.00;;;;4970376;28;20309;-48
2022/10/11 03:00:14;;;;;;;3.67;2.60;;;17.60;59.70;18.60;101647.00;;;;4970216;28;20232;-47
2022/10/11 03:02:40;;;;;;;2.93;2.37;;;17.60;59.70;18.60;101653.00;;;;4970162;28;20196;-47
2022/10/11 03:05:06;;;;;;;3.93;2.63;;;17.50;59.60;18.60;101648.00;;;;4970283;28;20596;-46
2022/10/11 03:07:31;;;;;;;2.50;2.10;;;17.50;59.60;18.50;101656.00;;;;4970456;28;20231;-49
2022/10/11 03:09:57;;;;;;;5.03;2.37;;;17.50;59.50;18.50;101649.00;;;;4970382;28;20237;-47
2022/10/11 03:12:23;;;;;;;5.87;2.30;;;17.50;59.60;18.50;101650.00;;;;4970177;28;20179;-47
2022/10/11 03:14:48;;;;;;;4.97;2.23;;;17.50;59.80;18.50;101649.00;;;;4971093;28;20209;-47
2022/10/11 03:17:14;;;;;;;5.23;2.20;;;17.50;59.80;18.50;101652.00;;;;4970157;28;20193;-47
2022/10/11 03:19:40;;;;;;;4.97;2.10;;;17.50;59.80;18.50;101662.00;;;;4970147;28;20175;-47
2022/10/11 03:22:06;;;;;;;4.13;2.43;;;17.50;59.80;18.50;101663.00;;;;4970026;28;20234;-49
2022/10/11 03:24:31;;;;;;;5.03;2.40;;;17.50;59.90;18.40;101673.00;;;;4969486;28;20185;-47
2022/10/11 03:26:57;;;;;;;4.90;2.40;;;17.50;59.90;18.40;101670.00;;;;4970494;28;20287;-47
2022/10/11 03:29:23;;;;;;;4.23;2.20;;;17.40;59.90;18.40;101672.00;;;;4969698;28;20468;-47
2022/10/11 03:31:48;;;;;;;3.70;2.30;;;17.50;60.10;18.40;101680.00;;;;4970047;28;20176;-47
2022/10/11 03:34:14;;;;;;;7.07;2.47;;;17.40;60.10;18.40;101598.00;;;;4969600;28;20220;-48
2022/10/11 03:36:40;;;;;;;6.10;2.30;;;17.40;60.00;18.40;101679.00;;;;4969554;28;20207;-48
2022/10/11 03:39:06;;;;;;;5.43;2.00;;;17.40;60.30;18.40;101687.00;;;;4970270;28;20201;-47
2022/10/11 03:41:31;;;;;;;8.73;2.20;;;17.40;60.50;18.40;101687.00;;;;4969922;28;20189;-48
2022/10/11 03:43:57;;;;;;;6.27;2.30;;;17.40;60.40;18.40;101684.00;;;;4969523;28;20195;-48
2022/10/11 03:46:23;;;;;;;6.10;2.47;;;17.40;60.50;18.40;101679.00;;;;4967126;28;20206;-47
2022/10/11 03:48:49;;;;;;;5.20;2.10;;;17.40;60.50;18.40;101684.00;;;;4970218;28;20559;-47
2022/10/11 03:51:15;;;;;;;5.33;2.13;;;17.30;60.50;18.40;101686.00;;;;4970879;28;20190;-47
2022/10/11 03:53:40;;;;;;;9.17;2.40;;;17.30;60.50;18.40;101687.00;;;;4970410;28;20199;-48
2022/10/11 03:56:07;;;;;;;6.70;2.23;;;17.30;60.60;18.40;101685.00;;;;4969624;28;20224;-48
2022/10/11 03:58:33;;;;;;;6.73;2.13;;;17.30;60.70;18.40;101688.00;;;;4969958;28;20258;-47
2022/10/11 04:00:58;;;;;;;6.73;2.10;;;17.30;60.80;18.30;101682.00;;;;4968658;28;20601;-46
2022/10/11 04:03:24;;;;;;;6.30;2.30;;;17.30;60.70;18.10;101682.00;;;;4970100;28;20184;-47
2022/10/11 04:05:50;;;;;;;3.03;1.87;;;17.30;60.70;18.30;101686.00;;;;4970796;28;20192;-47
2022/10/11 04:08:16;;;;;;;5.27;2.20;;;17.30;60.90;18.30;101684.00;;;;4974212;28;20257;-48
2022/10/11 04:10:42;;;;;;;3.73;2.10;;;17.30;60.90;18.30;101687.00;;;;4974062;28;20193;-48
2022/10/11 04:13:10;;;;;;;3.53;2.10;;;17.30;61.00;18.30;101694.00;;;;4974173;28;20300;-47
2022/10/11 04:15:37;;;;;;;4.53;2.03;;;17.20;60.80;18.30;101695.00;;;;4972641;28;20239;-48
2022/10/11 04:18:03;;;;;;;4.53;2.30;;;17.20;61.00;18.30;101692.00;;;;4973281;28;20193;-48
2022/10/11 04:20:29;;;;;;;4.30;2.10;;;17.20;61.00;18.30;101712.00;;;;4974062;28;20210;-48
2022/10/11 04:22:55;;;;;;;3.57;2.20;;;17.20;61.00;18.20;101703.00;;;;4974311;28;20262;-47
2022/10/11 04:25:20;;;;;;;2.30;2.00;;;17.20;61.00;18.20;101710.00;;;;4974864;28;20203;-48
2022/10/11 04:27:46;;;;;;;3.13;1.97;;;17.20;61.30;18.20;101713.00;;;;4972931;28;20211;-48
2022/10/11 04:30:12;;;;;;;2.30;1.90;;;17.20;61.00;18.20;101712.00;;;;4973679;28;20608;-48
2022/10/11 04:32:38;;;;;;;6.17;2.00;;;17.20;61.00;18.20;101711.00;;;;4973105;28;20180;-48
2022/10/11 04:35:04;;;;;;;3.83;2.03;;;17.20;61.00;18.20;101709.00;;;;4973416;28;20217;-48
2022/10/11 04:37:30;;;;;;;3.73;2.13;;;17.10;60.90;18.20;101709.00;;;;4973337;28;20586;-48
2022/10/11 04:39:56;;;;;;;3.07;1.93;;;17.10;60.90;18.20;101706.00;;;;4973306;28;20209;-49
2022/10/11 04:42:21;;;;;;;3.03;1.90;;;17.10;61.00;17.90;101713.00;;;;4973800;28;20435;-48
2022/10/11 04:44:47;;;;;;;2.63;2.00;;;17.10;61.00;18.20;101710.00;;;;4973049;28;20177;-48
2022/10/11 04:47:13;;;;;;;3.07;2.03;;;17.10;61.10;18.20;101710.00;;;;4973078;28;20196;-48
2022/10/11 04:49:38;;;;;;;2.07;1.87;;;17.10;61.10;18.10;101706.00;;;;4972925;28;20213;-48
2022/10/11 04:52:04;;;;;;;4.33;2.00;;;17.10;61.10;18.10;101702.00;;;;4973402;28;20185;-48
2022/10/11 04:54:30;;;;;;;3.13;1.87;;;17.10;61.20;18.10;101708.00;;;;4972966;28;20203;-47
2022/10/11 04:56:56;;;;;;;2.57;2.10;;;17.10;61.20;18.10;101707.00;;;;4973397;28;20238;-48
2022/10/11 04:59:22;;;;;;;2.40;2.00;;;17.00;61.10;18.10;101713.00;;;;4972770;28;20204;-48
2022/10/11 05:01:47;;;;;;;3.40;2.20;;;17.10;61.30;18.10;101716.00;;;;4972722;28;20609;-48
2022/10/11 05:04:13;;;;;;;2.40;1.90;;;17.00;61.20;18.10;101712.00;;;;4971541;28;20586;-48
2022/10/11 05:06:39;;;;;;;2.57;1.87;;;17.10;61.30;18.10;101719.00;;;;4973088;28;20236;-49
2022/10/11 05:09:04;;;;;;;3.00;2.03;;;17.00;61.30;18.00;101712.00;;;;4972053;28;20184;-48
2022/10/11 05:11:30;;;;;;;3.00;2.03;;;17.00;61.30;18.00;101720.00;;;;4970525;28;20188;-48
2022/10/11 05:13:56;;;;;;;2.10;1.90;;;17.00;61.40;18.00;101689.00;;;;4973583;28;20624;-47
2022/10/11 05:16:22;;;;;;;2.60;1.90;;;17.00;61.40;18.00;101726.00;;;;4970463;28;20576;-46
2022/10/11 05:18:48;;;;;;;2.93;1.90;;;16.90;61.40;18.00;101727.00;;;;4970925;28;20316;-48
2022/10/11 05:21:24;;;;;;;2.10;1.90;;;17.00;61.40;18.00;101730.00;;;;4971141;28;20242;-46
2022/10/11 05:23:50;;;;;;;2.00;1.77;;;17.00;61.50;18.00;101736.00;;;;4971360;28;20165;-46
2022/10/11 05:26:16;;;;;;;1.60;1.50;;;17.00;61.50;17.90;101739.00;;;;4971006;28;20193;-47
2022/10/11 05:28:42;;;;;;;2.80;1.80;;;16.90;61.40;17.90;101744.00;;;;4970377;28;20187;-48
2022/10/11 05:31:08;;;;;;;2.13;1.97;;;16.90;61.40;18.00;101751.00;;;;4971004;28;20551;-47
2022/10/11 05:33:33;;;;;;;2.00;1.80;;;16.90;61.50;17.90;101744.00;;;;4971170;28;20203;-48
2022/10/11 05:35:59;;;;;;;2.10;1.90;;;16.90;61.50;17.90;101741.00;;;;4971184;28;20180;-47
2022/10/11 05:38:25;;;;;;;2.37;1.87;;;16.90;61.50;17.90;101759.00;;;;4970551;28;20184;-47
2022/10/11 05:40:51;;;;;;;2.40;1.87;;;16.90;61.50;17.90;101756.00;;;;4970626;28;20182;-47
2022/10/11 05:43:17;;;;;;;4.00;2.00;;;16.90;61.60;17.90;101757.00;;;;4970858;28;20355;-47
2022/10/11 05:45:43;;;;;;;2.20;2.00;;;16.90;61.70;17.90;101753.00;;;;4971261;28;20652;-47
2022/10/11 05:48:09;;;;;;;2.53;1.80;;;16.80;61.60;17.90;101752.00;;;;4970637;28;20566;-47
2022/10/11 05:50:34;;;;;;;1.80;1.70;;;16.80;61.50;17.80;101761.00;;;;4970513;28;20187;-47
2022/10/11 05:53:00;;;;;;;2.13;1.70;;;16.80;61.60;17.80;101761.00;;;;4970952;28;20189;-46
2022/10/11 05:55:26;;;;;;;2.03;1.83;;;16.80;61.60;17.80;101759.00;;;;4970542;28;20179;-48
2022/10/11 05:57:53;;;;;;;2.27;1.93;;;16.80;61.60;17.80;101763.00;;;;4970367;28;20208;-48
2022/10/11 06:00:19;;;;;;;2.10;1.90;;;16.80;61.60;17.80;101761.00;;;;4970111;28;20646;-48
2022/10/11 06:02:45;;;;;;;3.47;1.90;;;16.80;61.60;17.80;101762.00;;;;4969330;28;20196;-47
2022/10/11 06:05:11;;;;;;;1.90;1.80;;;16.80;61.60;17.80;101773.00;;;;4970521;28;20667;-48
2022/10/11 06:07:37;;;;;;;2.10;1.90;;;16.80;61.60;17.80;101772.00;;;;4970411;28;20204;-48
2022/10/11 06:10:03;;;;;;;2.10;1.90;;;16.80;61.70;17.80;101775.00;;;;4970226;28;20185;-48
2022/10/11 06:12:30;;;;;;;2.10;1.90;;;16.80;61.60;17.80;101780.00;;;;4970646;28;20213;-48
2022/10/11 06:14:56;;;;;;;1.70;1.60;;;16.80;61.70;17.80;101781.00;;;;4970294;28;20682;-47
2022/10/11 06:17:22;;;;;;;2.00;1.87;;;16.80;61.60;17.80;101779.00;;;;4970074;28;20547;-48
2022/10/11 06:19:49;;;;;;;2.10;1.90;;;16.70;61.60;17.80;101796.00;;;;4970049;28;20187;-48
2022/10/11 06:22:15;;;;;;;1.87;1.70;;;16.70;61.60;17.70;101784.00;;;;4970050;28;20181;-47
2022/10/11 06:24:40;;;;;;;1.80;1.70;;;16.70;61.60;17.70;101790.00;;;;4969060;28;20184;-47
2022/10/11 06:27:07;;;;;;;1.97;1.80;;;16.70;61.60;17.70;101796.00;;;;4970032;28;20200;-47
2022/10/11 06:29:33;;;;;;;1.70;1.43;;;16.70;61.60;17.70;101807.00;;;;4969221;28;20189;-48
2022/10/11 06:31:59;;;;;;;2.10;1.90;;;16.70;61.60;17.70;101816.00;;;;4969684;28;20569;-47
2022/10/11 06:34:25;;;;;;;2.37;1.90;;;16.70;61.70;17.70;101805.00;;;;4969888;28;20207;-47
2022/10/11 06:36:51;;;;;;;1.83;1.73;;;16.70;61.70;17.70;101812.00;;;;4969811;28;20196;-47
2022/10/11 06:39:16;;;;;;;1.90;1.70;;;16.70;61.70;17.70;101816.00;;;;4968216;28;20653;-47
2022/10/11 06:41:42;;;;;;;2.00;1.70;;;16.70;61.70;17.70;101813.00;;;;4969871;28;20177;-47
2022/10/11 06:44:10;;;;;;;1.80;1.70;;;16.60;61.70;17.70;101823.00;;;;4969673;28;20192;-48
2022/10/11 06:46:36;;;;;;;2.10;1.90;;;16.60;61.70;17.70;101834.00;;;;4969608;28;20194;-47
2022/10/11 06:49:02;;;;;;;2.03;1.77;;;16.60;61.70;17.70;101827.00;;;;4969290;28;20190;-47
2022/10/11 06:51:29;;;;;;;1.90;1.80;;;16.60;61.70;17.60;101832.00;;;;4969408;28;20185;-47
2022/10/11 06:53:56;;;;;;;2.33;1.80;;;16.60;61.70;17.60;101825.00;;;;4969915;28;20209;-47
2022/10/11 06:56:23;;;;;;;1.70;1.60;;;16.60;61.80;17.60;101825.00;;;;4970285;28;20217;-47
2022/10/11 06:58:50;;;;;;;2.07;1.90;;;16.60;61.80;17.60;101834.00;;;;4970706;28;20165;-48
2022/10/11 07:01:17;;;;;;;1.87;1.70;;;16.60;61.80;17.60;101838.00;;;;4969241;28;20208;-47
2022/10/11 07:03:44;;;;;;;2.10;1.90;;;16.60;61.80;17.60;101845.00;;;;4969602;28;20231;-47
2022/10/11 07:06:15;;;;;;;1.97;1.70;;;16.60;61.80;17.60;101842.00;;;;4970032;28;20420;-48
2022/10/11 07:08:40;;;;;;;1.80;1.70;;;16.60;61.80;17.60;101841.00;;;;4967932;28;20223;-47
2022/10/11 07:11:09;;;;;;;1.70;1.60;;;16.60;61.90;17.60;101845.00;;;;4969434;28;20177;-47
2022/10/11 07:13:35;;;;;;;1.80;1.70;;;16.60;61.80;17.60;101843.00;;;;4967933;28;20784;-49
2022/10/11 07:16:06;;;;;;;1.80;1.70;;;16.60;61.90;17.60;101844.00;;;;4969395;28;20173;-47
2022/10/11 07:18:32;;;;;;;2.03;1.93;;;16.50;61.80;17.60;101849.00;;;;4967602;28;20157;-47
2022/10/11 07:21:01;;;;;;;1.70;1.60;;;16.50;61.80;17.50;101864.00;;;;4970680;28;20207;-48
2022/10/11 07:23:27;;;;;;;2.10;1.90;;;16.50;61.80;17.60;101852.00;;;;4970073;28;20601;-46
2022/10/11 07:25:54;;;;;;;1.70;1.60;;;16.50;61.80;17.50;101860.00;;;;4970691;28;20337;-47
2022/10/11 07:28:20;;;;;;;2.10;1.90;;;16.50;61.80;17.50;101862.00;;;;4971088;28;20224;-46
2022/10/11 07:30:46;;;;;;;1.60;1.50;;;16.50;61.80;17.50;101856.00;;;;4969716;28;20650;-47
2022/10/11 07:33:12;;;;;;;2.07;1.90;;;16.50;61.80;17.50;101865.00;;;;4970891;28;20174;-49
2022/10/11 07:35:38;;;;;;;1.80;1.70;;;16.50;61.90;17.50;101873.00;;;;4969534;28;20585;-46
2022/10/11 07:38:04;;;;;;;2.07;1.87;;;16.50;61.80;17.50;101870.00;;;;4970641;28;20201;-48
2022/10/11 07:40:30;;;;;;;2.00;1.80;;;16.50;61.90;17.50;101864.00;;;;4970531;28;20192;-48
2022/10/11 07:42:57;;;;;;;1.60;1.50;;;16.50;61.90;17.50;101872.00;;;;4970661;28;20663;-48
2022/10/11 07:45:24;;;;;;;1.70;1.60;;;16.50;62.00;17.50;101872.00;;;;4969185;28;20733;-48
2022/10/11 07:47:50;;;;;;;1.80;1.70;;;16.50;62.00;17.50;101864.00;;;;4970611;28;20226;-48
2022/10/11 07:50:16;;;;;;;4.13;1.87;;;16.50;62.10;17.50;101865.00;;;;4970829;28;20773;-46
2022/10/11 07:52:41;;;;;;;5.90;1.83;;;16.40;62.00;17.50;101865.00;;;;4929926;28;20846;-47
2022/10/11 07:55:08;;;;;;;2.57;2.10;;;16.50;63.00;17.50;101878.00;;;;4942763;28;20726;-47
2022/10/11 07:57:33;;;;;;;2.97;2.00;;;16.40;62.50;17.50;101870.00;;;;4967454;28;20299;-47
2022/10/11 07:59:59;;;;;;;4.07;1.80;;;16.50;62.50;17.40;101876.00;;;;4969250;28;20169;-47
2022/10/11 08:02:25;;;;;;;2.67;1.97;;;16.50;62.60;17.50;101874.00;;;;4969302;28;20172;-47
2022/10/11 08:04:51;;;;;;;3.60;2.10;;;16.50;62.60;17.40;101878.00;;;;4969402;28;20181;-47
2022/10/11 08:07:16;;;;;;;3.07;1.90;;;16.40;62.50;17.40;101875.00;;;;4968779;28;20200;-47
2022/10/11 08:09:42;;;;;;;2.50;2.10;;;16.40;62.50;17.40;101879.00;;;;4970056;28;20184;-47
2022/10/11 08:12:08;;;;;;;2.87;2.10;;;16.40;62.50;17.40;101878.00;;;;4968594;28;20541;-49
2022/10/11 08:14:34;;;;;;;2.70;1.80;;;16.50;62.60;17.40;101878.00;;;;4969526;28;20254;-48
2022/10/11 08:17:01;;;;;;;4.97;2.27;;;16.40;62.70;17.40;101892.00;;;;4969718;28;20191;-47
2022/10/11 08:19:27;;;;;;;5.23;2.10;;;16.40;63.00;17.40;101891.00;;;;4969429;28;20245;-47
2022/10/11 08:21:52;;;;;;;3.33;2.00;;;16.40;63.40;17.40;101895.00;;;;4968896;28;20170;-48
2022/10/11 08:24:19;;;;;;;4.50;2.23;;;16.40;63.70;17.40;101892.00;;;;4969097;28;20176;-48
2022/10/11 08:26:46;;;;;;;4.93;2.00;;;16.40;63.80;17.40;101890.00;;;;4966643;28;20197;-48
2022/10/11 08:29:13;;;;;;;3.87;2.33;;;16.40;64.20;17.40;101891.00;;;;4969222;28;20169;-48
2022/10/11 08:31:38;;;;;;;7.97;2.10;;;16.40;64.40;17.40;101893.00;;;;4969573;28;20174;-48
2022/10/11 08:34:04;;;;;;;5.17;2.27;;;16.40;64.70;17.40;101897.00;;;;4969264;28;20195;-48
2022/10/11 08:36:30;;;;;;;8.70;2.33;;;16.40;64.80;17.40;101896.00;;;;4968944;28;20209;-48
2022/10/11 08:38:56;;;;;;;10.03;2.53;;;16.40;64.80;17.40;101884.00;;;;4968415;28;20174;-48
2022/10/11 08:42:15;;;;;;;16.77;2.97;;;16.40;64.90;17.40;101898.00;;;;4968491;28;20174;-49
2022/10/11 08:44:52;;;;;;;8.27;2.40;;;16.40;65.40;17.40;101901.00;;;;4953393;28;20693;-49
2022/10/11 08:47:46;;;;;;;10.13;2.50;;;16.40;65.40;17.40;101909.00;;;;4968598;28;20678;-48
2022/10/11 08:50:18;;;;;;;8.67;2.53;;;16.40;65.50;17.40;101898.00;;;;4951790;28;20165;-48
2022/10/11 08:52:52;;;;;;;7.40;2.70;;;16.50;65.50;17.40;101906.00;;;;4931205;28;20226;-49
2022/10/11 08:55:39;;;;;;;10.23;2.60;;;16.40;65.50;17.40;101904.00;;;;4939698;29;20201;-49
2022/10/11 08:58:04;;;;;;;8.23;2.77;;;16.50;65.60;17.40;101904.00;;;;4938634;29;20200;-48
2022/10/11 09:00:32;;;;;;;11.20;2.70;;;16.50;65.70;17.20;101907.00;;;;4952736;29;20167;-48
2022/10/11 09:03:26;;;;;;;7.83;2.50;;;16.40;65.50;17.40;101909.00;;;;4937127;29;20189;-49
2022/10/11 09:05:57;;;;;;;8.87;2.53;;;16.40;66.00;17.40;101908.00;;;;4953706;29;20202;-54
2022/10/11 09:09:02;;;;;;;7.80;2.63;;;16.40;66.60;17.40;101907.00;;;;4952340;29;20173;-54
2022/10/11 09:11:37;;;;;;;6.93;3.17;;;16.40;65.50;17.40;101908.00;;;;4960287;28;20197;-52
2022/10/11 09:14:14;;;;;;;5.63;2.30;;;16.40;65.40;17.40;101916.00;;;;4951451;29;20189;-54
2022/10/11 09:17:35;;;;;;;5.17;2.37;;;16.40;65.50;17.40;101906.00;;;;4961339;28;20193;-52
2022/10/11 09:20:42;;;;;;;8.97;2.40;;;16.40;65.50;17.30;101910.00;;;;4956841;28;20188;-54
2022/10/11 09:23:38;;;;;;;7.30;2.40;;;16.40;65.40;17.30;101911.00;;;;4971279;28;20287;-53
2022/10/11 09:26:06;;;;;;;4.57;2.47;;;16.40;65.30;17.30;101900.00;;;;4971550;28;20532;-54
2022/10/11 09:29:05;;;;;;;4.80;2.50;;;16.40;65.20;17.30;101918.00;;;;4972015;28;20184;-54
2022/10/11 09:31:31;;;;;;;7.07;2.83;;;16.40;65.40;17.30;101910.00;;;;4971854;28;20165;-54
2022/10/11 09:33:58;;;;;;;5.70;2.80;;;16.40;65.40;17.30;101901.00;;;;4972533;28;20201;-52
2022/10/11 09:36:46;;;;;;;7.37;2.60;;;16.40;65.40;17.30;101909.00;;;;4955532;28;20189;-54
2022/10/11 09:39:29;;;;;;;6.83;2.87;;;16.40;65.40;17.30;101910.00;;;;4971486;28;20653;-53
2022/10/11 09:42:08;;;;;;;4.00;2.50;;;16.40;65.10;17.30;101913.00;;;;4971796;28;20177;-53
2022/10/11 09:44:40;;;;;;;7.27;2.63;;;16.40;65.10;17.30;101912.00;;;;4971214;28;20497;-53
2022/10/11 09:47:06;;;;;;;4.57;2.37;;;16.40;65.10;17.30;101924.00;;;;4959706;28;20201;-53
2022/10/11 09:49:41;;;;;;;4.97;2.77;;;16.40;65.00;17.30;101916.00;;;;4974942;28;20173;-53
2022/10/11 09:52:15;;;;;;;2.90;2.27;;;16.40;65.00;17.30;101915.00;;;;4974473;28;20172;-53
2022/10/11 09:54:49;;;;;;;7.33;2.80;;;16.40;65.00;17.30;101923.00;;;;4846356;28;20258;-53
2022/10/11 09:57:25;;;;;;;4.83;2.80;;;16.40;65.00;17.30;101916.00;;;;4972332;28;20235;-53
2022/10/11 10:00:19;;;;;;;5.23;2.83;;;16.30;64.90;17.30;101927.00;;;;4992287;28;20181;-53
2022/10/11 10:02:47;;;;;;;4.50;2.80;;;16.30;64.80;17.30;101922.00;;;;4991524;28;20187;-53
2022/10/11 10:05:18;;;;;;;3.60;2.90;;;16.30;64.70;17.30;101924.00;;;;4990371;28;20177;-54
2022/10/11 10:08:08;;;;;;;4.97;2.83;;;16.30;64.70;17.30;101923.00;;;;4991283;28;20617;-55
2022/10/11 10:11:02;;;;;;;5.20;3.00;;;16.30;64.60;17.30;101926.00;;;;4991336;28;20177;-53
2022/10/11 10:13:53;;;;;;;3.33;2.63;;;16.40;64.70;17.30;101918.00;;;;4991207;28;20266;-53
2022/10/11 10:16:27;;;;;;;4.20;2.67;;;16.30;64.60;17.30;101921.00;;;;4986755;28;20306;-53
2022/10/11 10:19:00;;;;;;;3.20;2.60;;;16.30;64.60;17.30;101916.00;;;;4969270;28;20180;-53
2022/10/11 10:21:29;;;;;;;4.27;2.70;;;16.30;64.50;17.30;101913.00;;;;4976412;28;20169;-53
2022/10/11 10:23:55;;;;;;;3.13;2.50;;;16.30;64.50;17.30;101902.00;;;;4954874;28;20188;-53
2022/10/11 10:26:24;;;;;;;3.87;2.80;;;16.30;64.50;17.30;101912.00;;;;4970296;28;20255;-52
2022/10/11 10:29:08;;;;;;;4.33;2.67;;;16.30;64.60;17.30;101924.00;;;;4972225;28;20642;-52
2022/10/11 10:32:15;;;;;;;5.00;2.80;;;16.30;64.50;17.30;101919.00;;;;4971898;28;20177;-53
2022/10/11 10:35:06;;;;;;;4.40;2.53;;;16.30;65.40;17.30;101916.00;;;;4954100;28;20232;-52
2022/10/11 10:37:40;;;;;;;5.07;2.83;;;16.30;64.50;17.30;101932.00;;;;4970091;28;20686;-52
2022/10/11 10:40:12;;;;;;;4.37;2.80;;;16.30;64.50;17.30;101921.00;;;;4955284;28;20232;-53
2022/10/11 10:42:38;;;;;;;2.90;2.60;;;16.30;64.50;17.30;101919.00;;;;4970602;28;20196;-53
2022/10/11 10:45:06;;;;;;;4.20;2.93;;;16.30;64.50;17.30;101916.00;;;;4971286;28;20216;-54
2022/10/11 10:48:03;;;;;;;3.07;2.70;;;16.30;64.50;17.30;101918.00;;;;4953936;28;20228;-53
2022/10/11 10:50:53;;;;;;;2.93;2.47;;;16.30;64.50;17.30;101908.00;;;;4971666;28;20264;-53
2022/10/11 10:53:26;;;;;;;5.10;2.63;;;16.30;64.50;17.30;101912.00;;;;4843984;28;20172;-53
2022/10/11 10:56:24;;;;;;;3.53;2.57;;;16.30;64.50;17.30;101912.00;;;;4989333;28;20421;-53
2022/10/11 10:59:20;;;;;;;3.30;2.73;;;16.30;64.50;17.30;101914.00;;;;4989072;28;20727;-53
2022/10/11 11:02:00;;;;;;;3.47;2.50;;;16.30;64.50;17.30;101916.00;;;;4971869;28;20272;-53
2022/10/11 11:04:32;;;;;;;3.80;2.60;;;16.30;64.40;17.30;101903.00;;;;4984346;28;20164;-52